createdAt,value
2017-11-17T00:00:39.191Z,0.50
2017-11-17T00:03:05.740Z,0.50
2017-11-17T00:05:32.392Z,0.40
2017-11-17T00:07:58.931Z,0.50
2017-11-17T00:10:25.503Z,0.50
2017-11-17T00:12:52.159Z,0.50
2017-11-17T00:15:18.697Z,0.50
2017-11-17T00:17:45.255Z,0.50
2017-11-17T00:20:11.924Z,0.50
2017-11-17T00:22:38.478Z,0.50
2017-11-17T00:25:05.023Z,0.50
2017-11-17T00:27:31.983Z,0.50
2017-11-17T00:29:58.546Z,0.50
2017-11-17T00:32:25.131Z,0.50
2017-11-17T00:34:51.784Z,0.40
2017-11-17T00:37:18.336Z,0.40
2017-11-17T00:39:44.902Z,0.40
2017-11-17T00:42:11.519Z,0.50
2017-11-17T00:44:38.095Z,0.50
2017-11-17T00:47:05.018Z,0.40
2017-11-17T00:49:31.815Z,0.40
2017-11-17T00:51:58.379Z,0.40
2017-11-17T00:54:25.339Z,0.40
2017-11-17T00:56:51.936Z,0.50
2017-11-17T00:59:18.474Z,0.40
2017-11-17T01:01:45.446Z,0.40
2017-11-17T01:04:12.503Z,0.40
2017-11-17T01:06:39.052Z,0.40
2017-11-17T01:09:05.599Z,0.50
2017-11-17T01:11:32.183Z,0.40
2017-11-17T01:13:58.739Z,0.50
2017-11-17T01:16:25.293Z,0.40
2017-11-17T01:18:52.175Z,0.40
2017-11-17T01:21:18.731Z,0.50
2017-11-17T01:23:45.655Z,0.40
2017-11-17T01:26:12.262Z,0.40
2017-11-17T01:28:39.184Z,0.40
2017-11-17T01:31:05.768Z,0.40
2017-11-17T01:33:32.417Z,0.40
2017-11-17T01:35:58.995Z,0.40
2017-11-17T01:38:25.559Z,0.40
2017-11-17T01:40:52.179Z,0.40
2017-11-17T01:43:18.754Z,0.40
2017-11-17T01:45:45.315Z,0.40
2017-11-17T01:48:11.915Z,0.40
2017-11-17T01:50:38.840Z,0.30
2017-11-17T01:53:05.392Z,0.40
2017-11-17T01:55:32.013Z,0.30
2017-11-17T01:57:58.989Z,0.40
2017-11-17T02:00:25.973Z,0.50
2017-11-17T02:02:52.645Z,0.50
2017-11-17T02:05:19.239Z,0.50
2017-11-17T02:07:45.813Z,0.50
2017-11-17T02:10:12.824Z,0.60
2017-11-17T02:12:39.398Z,0.60
2017-11-17T02:15:05.963Z,0.60
2017-11-17T02:17:32.566Z,0.60
2017-11-17T02:19:59.197Z,0.60
2017-11-17T02:22:25.843Z,0.60
2017-11-17T02:24:52.535Z,0.60
2017-11-17T02:27:19.165Z,0.50
2017-11-17T02:29:45.779Z,0.50
2017-11-17T02:32:12.463Z,0.50
2017-11-17T02:34:39.221Z,0.40
2017-11-17T02:37:05.817Z,0.50
2017-11-17T02:39:32.465Z,0.50
2017-11-17T02:41:59.096Z,0.50
2017-11-17T02:44:26.084Z,0.50
2017-11-17T02:46:52.758Z,0.50
2017-11-17T02:49:19.369Z,0.50
2017-11-17T02:51:45.979Z,0.40
2017-11-17T02:54:12.659Z,0.50
2017-11-17T02:56:39.275Z,0.40
2017-11-17T02:59:06.280Z,0.40
2017-11-17T03:01:32.916Z,0.40
2017-11-17T03:03:59.865Z,0.50
2017-11-17T03:06:26.445Z,0.50
2017-11-17T03:08:53.279Z,0.50
2017-11-17T03:11:19.936Z,0.50
2017-11-17T03:13:46.524Z,0.50
2017-11-17T03:16:13.527Z,0.50
2017-11-17T03:18:40.087Z,0.50
2017-11-17T03:21:06.694Z,0.50
2017-11-17T03:23:33.329Z,0.50
2017-11-17T03:25:59.947Z,0.50
2017-11-17T03:28:26.947Z,0.60
2017-11-17T03:30:53.650Z,0.60
2017-11-17T03:33:20.203Z,0.50
2017-11-17T03:35:46.828Z,0.50
2017-11-17T03:38:13.460Z,0.50
2017-11-17T03:40:40.394Z,0.60
2017-11-17T03:43:06.943Z,0.60
2017-11-17T03:45:33.696Z,0.60
2017-11-17T03:48:07.178Z,0.70
2017-11-17T03:50:33.771Z,0.80
2017-11-17T03:53:00.748Z,0.70
2017-11-17T03:55:27.308Z,0.70
2017-11-17T03:57:54.015Z,0.70
2017-11-17T04:00:20.627Z,0.60
2017-11-17T04:02:47.174Z,0.60
2017-11-17T04:05:13.820Z,0.60
2017-11-17T04:07:40.412Z,0.60
2017-11-17T04:10:07.373Z,0.70
2017-11-17T04:12:34.372Z,0.60
2017-11-17T04:15:00.964Z,0.60
2017-11-17T04:17:27.544Z,0.60
2017-11-17T04:20:01.539Z,0.60
2017-11-17T04:22:28.103Z,0.60
2017-11-17T04:24:55.074Z,0.60
2017-11-17T04:27:21.699Z,0.60
2017-11-17T04:29:48.636Z,0.50
2017-11-17T04:32:15.183Z,0.60
2017-11-17T04:34:41.823Z,0.50
2017-11-17T04:37:08.435Z,0.60
2017-11-17T04:39:35.021Z,0.70
2017-11-17T04:42:01.807Z,0.80
2017-11-17T04:44:28.376Z,0.80
2017-11-17T04:46:54.992Z,0.80
2017-11-17T04:49:21.715Z,0.90
2017-11-17T04:51:48.334Z,0.90
2017-11-17T04:54:14.895Z,0.80
2017-11-17T04:56:41.515Z,0.70
2017-11-17T04:59:08.092Z,0.70
2017-11-17T05:01:34.671Z,0.70
2017-11-17T05:04:01.304Z,0.60
2017-11-17T05:06:27.877Z,0.50
2017-11-17T05:08:54.439Z,0.50
2017-11-17T05:11:21.439Z,0.50
2017-11-17T05:13:47.984Z,0.50
2017-11-17T05:16:14.551Z,0.50
2017-11-17T05:18:41.170Z,0.40
2017-11-17T05:21:07.754Z,0.40
2017-11-17T05:23:34.332Z,0.50
2017-11-17T05:26:01.312Z,0.60
2017-11-17T05:28:27.858Z,0.60
2017-11-17T05:30:54.415Z,0.60
2017-11-17T05:33:21.019Z,0.70
2017-11-17T05:35:48.035Z,0.70
2017-11-17T05:38:14.639Z,0.70
2017-11-17T05:40:41.711Z,0.70
2017-11-17T05:43:08.317Z,0.70
2017-11-17T05:45:34.904Z,0.70
2017-11-17T05:48:01.507Z,0.50
2017-11-17T05:50:28.067Z,0.50
2017-11-17T05:52:54.637Z,0.60
2017-11-17T05:55:22.419Z,0.60
2017-11-17T05:57:49.338Z,0.60
2017-11-17T06:00:15.872Z,0.60
2017-11-17T06:02:42.463Z,0.70
2017-11-17T06:05:09.367Z,0.70
2017-11-17T06:07:35.914Z,0.70
2017-11-17T06:10:02.571Z,0.70
2017-11-17T06:12:29.331Z,0.70
2017-11-17T06:14:55.980Z,0.60
2017-11-17T06:17:22.583Z,0.60
2017-11-17T06:19:49.139Z,0.50
2017-11-17T06:22:15.686Z,0.50
2017-11-17T06:24:42.389Z,0.50
2017-11-17T06:27:08.987Z,0.50
2017-11-17T06:29:35.553Z,0.60
2017-11-17T06:32:02.163Z,0.50
2017-11-17T06:34:29.108Z,0.50
2017-11-17T06:36:56.092Z,0.50
2017-11-17T06:39:22.714Z,0.50
2017-11-17T06:41:49.703Z,0.50
2017-11-17T06:44:16.251Z,0.50
2017-11-17T06:46:42.934Z,0.50
2017-11-17T06:49:09.481Z,0.50
2017-11-17T06:51:36.024Z,0.60
2017-11-17T06:54:02.667Z,0.60
2017-11-17T06:56:29.220Z,0.60
2017-11-17T06:58:55.784Z,0.70
2017-11-17T07:01:22.379Z,0.80
2017-11-17T07:03:48.935Z,0.80
2017-11-17T07:06:15.479Z,0.80
2017-11-17T07:08:56.956Z,0.80
2017-11-17T07:11:23.871Z,0.80
2017-11-17T07:13:50.471Z,0.80
2017-11-17T07:16:17.409Z,0.80
2017-11-17T07:18:43.970Z,0.80
2017-11-17T07:21:10.510Z,1.00
2017-11-17T07:23:37.482Z,1.20
2017-11-17T07:26:04.018Z,1.20
2017-11-17T07:28:30.572Z,1.30
2017-11-17T07:30:57.268Z,1.30
2017-11-17T07:33:23.820Z,1.30
2017-11-17T07:35:50.372Z,1.40
2017-11-17T07:38:17.022Z,1.50
2017-11-17T07:40:43.571Z,1.50
2017-11-17T07:43:10.119Z,1.50
2017-11-17T07:45:36.713Z,1.60
2017-11-17T07:48:03.275Z,1.60
2017-11-17T07:50:29.827Z,1.60
2017-11-17T07:52:56.450Z,1.60
2017-11-17T07:55:23.023Z,1.60
2017-11-17T07:57:49.567Z,1.70
2017-11-17T08:00:16.191Z,1.80
2017-11-17T08:02:42.752Z,1.90
2017-11-17T08:05:09.311Z,1.90
2017-11-17T08:07:35.914Z,1.90
2017-11-17T08:10:02.871Z,1.90
2017-11-17T08:12:29.838Z,1.90
2017-11-17T08:14:56.806Z,1.90
2017-11-17T08:17:31.100Z,1.90
2017-11-17T08:19:57.763Z,1.80
2017-11-17T08:22:24.727Z,1.80
2017-11-17T08:24:51.676Z,1.80
2017-11-17T08:27:18.660Z,1.90
2017-11-17T08:29:45.268Z,1.90
2017-11-17T08:32:11.810Z,2.00
2017-11-17T08:34:38.448Z,2.00
2017-11-17T08:37:05.076Z,2.00
2017-11-17T08:39:31.640Z,2.00
2017-11-17T08:41:58.270Z,2.10
2017-11-17T08:44:24.826Z,2.20
2017-11-17T08:46:51.376Z,2.20
2017-11-17T08:49:17.996Z,2.30
2017-11-17T08:51:44.571Z,2.40
2017-11-17T08:54:11.159Z,2.40
2017-11-17T08:56:38.200Z,2.50
2017-11-17T08:59:04.784Z,2.50
2017-11-17T09:01:31.719Z,2.60
2017-11-17T09:03:58.699Z,2.50
2017-11-17T09:06:25.252Z,2.50
2017-11-17T09:08:51.808Z,2.60
2017-11-17T09:11:18.415Z,2.60
2017-11-17T09:13:44.970Z,2.50
2017-11-17T09:16:11.909Z,2.50
2017-11-17T09:18:38.524Z,2.50
2017-11-17T09:21:05.072Z,2.60
2017-11-17T09:23:31.623Z,2.60
2017-11-17T09:25:58.324Z,2.70
2017-11-17T09:28:25.335Z,2.80
2017-11-17T09:30:51.887Z,2.80
2017-11-17T09:33:18.547Z,3.10
2017-11-17T09:35:45.103Z,3.20
2017-11-17T09:38:11.700Z,3.40
2017-11-17T09:40:38.326Z,3.40
2017-11-17T09:43:05.242Z,3.40
2017-11-17T09:45:31.841Z,3.40
2017-11-17T09:47:58.472Z,3.50
2017-11-17T09:50:25.398Z,3.70
2017-11-17T09:52:51.960Z,3.70
2017-11-17T09:55:18.604Z,3.70
2017-11-17T09:57:45.183Z,3.70
2017-11-17T10:00:12.211Z,3.60
2017-11-17T10:02:38.832Z,3.60
2017-11-17T10:05:05.441Z,3.50
2017-11-17T10:07:32.425Z,3.50
2017-11-17T10:09:59.064Z,3.50
2017-11-17T10:12:25.636Z,3.40
2017-11-17T10:14:52.218Z,3.50
2017-11-17T10:17:18.860Z,3.50
2017-11-17T10:19:45.472Z,3.40
2017-11-17T10:22:12.024Z,3.40
2017-11-17T10:24:38.679Z,3.50
2017-11-17T10:27:05.255Z,3.40
2017-11-17T10:29:31.839Z,3.30
2017-11-17T10:31:58.471Z,3.30
2017-11-17T10:34:25.462Z,3.40
2017-11-17T10:36:52.043Z,3.50
2017-11-17T10:39:18.676Z,3.60
2017-11-17T10:41:45.250Z,3.80
2017-11-17T10:44:11.827Z,4.00
2017-11-17T10:46:38.826Z,4.10
2017-11-17T10:49:05.396Z,4.10
2017-11-17T10:51:31.999Z,4.10
2017-11-17T10:53:58.643Z,4.20
2017-11-17T10:56:25.270Z,4.20
2017-11-17T10:58:52.269Z,4.20
2017-11-17T11:01:18.888Z,4.20
2017-11-17T11:03:45.864Z,4.00
2017-11-17T11:06:12.507Z,4.00
2017-11-17T11:08:39.148Z,3.90
2017-11-17T11:11:11.753Z,4.00
2017-11-17T11:13:38.363Z,4.00
2017-11-17T11:16:04.982Z,4.10
2017-11-17T11:18:31.566Z,4.30
2017-11-17T11:21:05.420Z,4.40
2017-11-17T11:23:32.016Z,4.40
2017-11-17T11:25:58.620Z,4.30
2017-11-17T11:28:25.248Z,4.30
2017-11-17T11:30:51.827Z,4.30
2017-11-17T11:33:18.395Z,4.30
2017-11-17T11:35:45.152Z,4.40
2017-11-17T11:38:11.775Z,4.40
2017-11-17T11:40:38.345Z,4.50
2017-11-17T11:43:05.135Z,4.50
2017-11-17T11:45:33.519Z,4.50
2017-11-17T11:48:00.108Z,4.40
2017-11-17T11:50:26.744Z,4.50
2017-11-17T11:52:53.295Z,4.50
2017-11-17T11:55:19.896Z,4.60
2017-11-17T11:57:46.496Z,4.60
2017-11-17T12:00:13.116Z,4.60
2017-11-17T12:02:40.046Z,4.50
2017-11-17T12:05:06.804Z,4.50
2017-11-17T12:07:33.367Z,4.40
2017-11-17T12:10:00.288Z,4.30
2017-11-17T12:12:26.942Z,4.40
2017-11-17T12:14:53.488Z,4.30
2017-11-17T12:17:20.031Z,4.20
2017-11-17T12:19:46.667Z,4.20
2017-11-17T12:22:13.218Z,4.20
2017-11-17T12:24:39.754Z,4.10
2017-11-17T12:27:06.355Z,4.00
2017-11-17T12:29:33.263Z,4.00
2017-11-17T12:31:59.818Z,4.00
2017-11-17T12:34:26.426Z,3.90
2017-11-17T12:36:52.987Z,3.90
2017-11-17T12:39:19.527Z,3.90
2017-11-17T12:41:46.144Z,3.90
2017-11-17T12:44:13.069Z,4.20
2017-11-17T12:46:39.614Z,4.10
2017-11-17T12:49:06.296Z,4.20
2017-11-17T12:51:32.885Z,4.20
2017-11-17T12:53:59.439Z,4.10
2017-11-17T12:56:26.028Z,4.10
2017-11-17T12:58:52.583Z,4.10
2017-11-17T13:01:19.133Z,4.10
2017-11-17T13:03:46.116Z,4.10
2017-11-17T13:06:12.714Z,4.10
2017-11-17T13:08:39.284Z,4.20
2017-11-17T13:11:06.251Z,4.10
2017-11-17T13:13:33.172Z,4.20
2017-11-17T13:15:59.723Z,4.20
2017-11-17T13:18:26.345Z,4.20
2017-11-17T13:20:52.907Z,4.30
2017-11-17T13:23:19.468Z,4.30
2017-11-17T13:25:46.060Z,4.30
2017-11-17T13:28:12.615Z,4.30
2017-11-17T13:30:39.171Z,4.30
2017-11-17T13:33:05.776Z,4.30
2017-11-17T13:35:32.691Z,4.20
2017-11-17T13:37:59.248Z,4.10
2017-11-17T13:40:25.889Z,4.10
2017-11-17T13:42:52.441Z,4.10
2017-11-17T13:45:18.989Z,4.10
2017-11-17T13:47:45.605Z,4.10
2017-11-17T13:50:12.146Z,4.20
2017-11-17T13:52:38.683Z,4.20
2017-11-17T13:55:05.316Z,4.20
2017-11-17T13:57:32.256Z,4.20
2017-11-17T13:59:58.827Z,4.20
2017-11-17T14:02:25.444Z,4.10
2017-11-17T14:04:51.995Z,4.10
2017-11-17T14:07:18.587Z,4.00
2017-11-17T14:09:45.263Z,3.90
2017-11-17T14:12:11.827Z,3.80
2017-11-17T14:14:38.376Z,3.80
2017-11-17T14:17:04.995Z,3.70
2017-11-17T14:19:31.536Z,3.70
2017-11-17T14:21:58.103Z,3.80
2017-11-17T14:24:24.716Z,3.70
2017-11-17T14:26:51.631Z,3.80
2017-11-17T14:29:18.228Z,3.80
2017-11-17T14:31:44.900Z,3.80
2017-11-17T14:34:11.523Z,3.70
2017-11-17T14:36:38.166Z,3.80
2017-11-17T14:39:05.209Z,3.70
2017-11-17T14:41:32.138Z,3.70
2017-11-17T14:43:58.731Z,3.70
2017-11-17T14:46:25.356Z,3.60
2017-11-17T14:48:52.263Z,3.60
2017-11-17T14:51:18.824Z,3.60
2017-11-17T14:53:45.427Z,3.60
2017-11-17T14:56:11.974Z,3.50
2017-11-17T14:58:38.908Z,3.40
2017-11-17T15:01:12.482Z,3.40
2017-11-17T15:03:39.077Z,3.40
2017-11-17T15:06:06.008Z,3.50
2017-11-17T15:08:32.687Z,3.40
2017-11-17T15:10:59.632Z,3.30
2017-11-17T15:13:26.196Z,3.30
2017-11-17T15:15:53.253Z,3.30
2017-11-17T15:18:20.232Z,3.30
2017-11-17T15:20:46.804Z,3.30
2017-11-17T15:23:13.419Z,3.30
2017-11-17T15:25:40.371Z,3.30
2017-11-17T15:28:06.980Z,3.30
2017-11-17T15:30:33.703Z,3.20
2017-11-17T15:33:00.336Z,3.20
2017-11-17T15:35:26.940Z,3.20
2017-11-17T15:37:54.048Z,3.10
2017-11-17T15:40:20.635Z,3.10
2017-11-17T15:42:47.594Z,3.10
2017-11-17T15:45:14.605Z,3.10
2017-11-17T15:47:41.220Z,3.10
2017-11-17T15:50:07.812Z,3.00
2017-11-17T15:52:34.463Z,3.00
2017-11-17T15:55:01.051Z,3.00
2017-11-17T15:57:28.007Z,2.90
2017-11-17T15:59:55.041Z,2.90
2017-11-17T16:02:21.651Z,2.90
2017-11-17T16:04:48.279Z,2.90
2017-11-17T16:07:14.919Z,2.90
2017-11-17T16:09:41.951Z,2.80
2017-11-17T16:12:08.583Z,2.80
2017-11-17T16:14:35.268Z,2.80
2017-11-17T16:17:02.236Z,2.80
2017-11-17T16:19:29.259Z,2.80
2017-11-17T16:21:56.316Z,2.80
2017-11-17T16:24:22.899Z,2.80
2017-11-17T16:26:49.823Z,2.80
2017-11-17T16:29:16.472Z,2.80
2017-11-17T16:31:43.070Z,2.80
2017-11-17T16:34:09.772Z,2.80
2017-11-17T16:36:36.412Z,2.80
2017-11-17T16:39:03.072Z,2.80
2017-11-17T16:41:29.709Z,2.80
2017-11-17T16:43:56.319Z,2.90
2017-11-17T16:46:22.943Z,2.90
2017-11-17T16:48:49.883Z,2.90
2017-11-17T16:51:16.641Z,2.90
2017-11-17T16:53:43.206Z,2.90
2017-11-17T16:56:10.183Z,2.90
2017-11-17T16:58:36.888Z,2.90
2017-11-17T17:01:03.488Z,2.90
2017-11-17T17:03:30.067Z,2.90
2017-11-17T17:05:56.731Z,2.80
2017-11-17T17:08:23.412Z,2.80
2017-11-17T17:10:50.104Z,2.80
2017-11-17T17:13:16.767Z,2.80
2017-11-17T17:15:43.372Z,2.80
2017-11-17T17:18:10.044Z,2.80
2017-11-17T17:20:36.720Z,2.80
2017-11-17T17:23:03.311Z,2.80
2017-11-17T17:25:29.890Z,2.80
2017-11-17T17:27:56.511Z,2.80
2017-11-17T17:30:23.084Z,2.80
2017-11-17T17:32:49.631Z,2.80
2017-11-17T17:35:16.381Z,2.70
2017-11-17T17:37:42.984Z,2.70
2017-11-17T17:40:09.919Z,2.60
2017-11-17T17:42:36.531Z,2.70
2017-11-17T17:45:03.135Z,2.70
2017-11-17T17:47:30.083Z,2.70
2017-11-17T17:49:56.723Z,2.70
2017-11-17T17:52:23.303Z,2.70
2017-11-17T17:54:49.893Z,2.70
2017-11-17T17:57:16.563Z,2.70
2017-11-17T17:59:43.112Z,2.60
2017-11-17T18:02:09.739Z,2.70
2017-11-17T18:04:36.432Z,2.70
2017-11-17T18:07:03.040Z,2.70
2017-11-17T18:09:29.696Z,2.60
2017-11-17T18:11:56.379Z,2.60
2017-11-17T18:14:23.311Z,2.60
2017-11-17T18:16:49.875Z,2.60
2017-11-17T18:19:16.483Z,2.60
2017-11-17T18:21:43.091Z,2.70
2017-11-17T18:24:09.664Z,2.70
2017-11-17T18:26:36.403Z,2.60
2017-11-17T18:29:02.958Z,2.60
2017-11-17T18:31:29.561Z,2.60
2017-11-17T18:33:56.170Z,2.50
2017-11-17T18:36:22.772Z,2.50
2017-11-17T18:38:49.320Z,2.50
2017-11-17T18:41:16.387Z,2.50
2017-11-17T18:43:43.366Z,2.50
2017-11-17T18:46:09.963Z,2.50
2017-11-17T18:48:36.618Z,2.50
2017-11-17T18:51:03.737Z,2.50
2017-11-17T18:53:30.356Z,2.50
2017-11-17T18:55:57.310Z,2.50
2017-11-17T18:58:23.912Z,2.60
2017-11-17T19:00:50.484Z,2.50
2017-11-17T19:03:17.196Z,2.50
2017-11-17T19:05:44.656Z,2.50
2017-11-17T19:08:11.259Z,2.50
2017-11-17T19:10:37.911Z,2.40
2017-11-17T19:13:04.898Z,2.40
2017-11-17T19:15:31.788Z,2.40
2017-11-17T19:17:58.479Z,2.40
2017-11-17T19:20:25.387Z,2.40
2017-11-17T19:22:52.780Z,2.40
2017-11-17T19:25:19.470Z,2.40
2017-11-17T19:27:46.011Z,2.40
2017-11-17T19:30:12.948Z,2.40
2017-11-17T19:32:39.639Z,2.40
2017-11-17T19:35:06.199Z,2.30
2017-11-17T19:37:32.759Z,2.30
2017-11-17T19:39:59.364Z,2.30
2017-11-17T19:42:25.973Z,2.20
2017-11-17T19:44:52.532Z,2.20
2017-11-17T19:47:19.158Z,2.20
2017-11-17T19:49:45.721Z,2.20
2017-11-17T19:52:12.267Z,2.20
2017-11-17T19:54:39.820Z,2.30
2017-11-17T19:57:07.491Z,2.30
2017-11-17T19:59:34.216Z,2.30
2017-11-17T20:02:00.831Z,2.30
2017-11-17T20:04:27.755Z,2.30
2017-11-17T20:06:55.208Z,2.30
2017-11-17T20:09:21.831Z,2.30
2017-11-17T20:11:48.372Z,2.30
2017-11-17T20:14:15.786Z,2.30
2017-11-17T20:16:42.472Z,2.30
2017-11-17T20:19:09.065Z,2.30
2017-11-17T20:21:35.611Z,2.30
2017-11-17T20:24:02.311Z,2.30
2017-11-17T20:26:29.304Z,2.30
2017-11-17T20:28:55.872Z,2.30
2017-11-17T20:31:22.491Z,2.30
2017-11-17T20:33:49.051Z,2.30
2017-11-17T20:36:15.660Z,2.30
2017-11-17T20:38:42.661Z,2.30
2017-11-17T20:41:10.211Z,2.30
2017-11-17T20:43:36.760Z,2.20
2017-11-17T20:46:03.356Z,2.20
2017-11-17T20:48:29.900Z,2.20
2017-11-17T20:50:58.382Z,2.20
2017-11-17T20:53:25.021Z,2.20
2017-11-17T20:55:52.418Z,2.20
2017-11-17T20:58:18.971Z,2.30
2017-11-17T21:00:46.424Z,2.30
2017-11-17T21:03:13.928Z,2.20
2017-11-17T21:05:42.599Z,2.20
2017-11-17T21:08:09.199Z,2.20
2017-11-17T21:10:35.747Z,2.20
2017-11-17T21:13:03.132Z,2.30
2017-11-17T21:15:30.607Z,2.20
2017-11-17T21:17:57.160Z,2.30
2017-11-17T21:20:24.720Z,2.30
2017-11-17T21:22:54.527Z,2.30
2017-11-17T21:25:22.163Z,2.30
2017-11-17T21:27:49.091Z,2.20
2017-11-17T21:30:15.699Z,2.20
2017-11-17T21:32:42.250Z,2.20
2017-11-17T21:35:08.811Z,2.20
2017-11-17T21:37:35.459Z,2.30
2017-11-17T21:40:02.099Z,2.30
2017-11-17T21:42:28.743Z,2.30
2017-11-17T21:44:55.356Z,2.30
2017-11-17T21:47:21.923Z,2.30
2017-11-17T21:49:48.455Z,2.30
2017-11-17T21:52:15.940Z,2.20
2017-11-17T21:54:42.881Z,2.20
2017-11-17T21:57:09.449Z,2.30
2017-11-17T21:59:36.063Z,2.20
2017-11-17T22:02:02.640Z,2.20
2017-11-17T22:04:29.242Z,2.20
2017-11-17T22:06:55.898Z,2.20
2017-11-17T22:09:22.455Z,2.20
2017-11-17T22:11:49.000Z,2.20
2017-11-17T22:14:15.978Z,2.20
2017-11-17T22:16:42.898Z,2.20
2017-11-17T22:19:09.816Z,2.10
2017-11-17T22:21:36.415Z,2.10
2017-11-17T22:24:03.419Z,2.10
2017-11-17T22:26:29.967Z,2.10
2017-11-17T22:28:56.608Z,2.20
2017-11-17T22:31:23.523Z,2.20
2017-11-17T22:33:50.080Z,2.20
2017-11-17T22:36:16.671Z,2.10
2017-11-17T22:38:43.211Z,2.10
2017-11-17T22:41:09.755Z,2.10
2017-11-17T22:43:36.417Z,2.10
2017-11-17T22:46:02.988Z,2.20
2017-11-17T22:48:29.555Z,2.20
2017-11-17T22:50:56.166Z,2.10
2017-11-17T22:53:23.088Z,2.20
2017-11-17T22:55:49.625Z,2.20
2017-11-17T22:58:16.233Z,2.20
2017-11-17T23:00:42.867Z,2.20
2017-11-17T23:03:09.412Z,2.20
2017-11-17T23:05:36.029Z,2.20
2017-11-17T23:08:02.959Z,2.30
2017-11-17T23:10:29.524Z,2.30
2017-11-17T23:12:56.159Z,2.30
2017-11-17T23:15:22.716Z,2.20
2017-11-17T23:17:49.254Z,2.20
2017-11-17T23:20:15.864Z,2.20
2017-11-17T23:22:42.419Z,2.20
2017-11-17T23:25:08.976Z,2.30
2017-11-17T23:27:35.592Z,2.40
2017-11-17T23:30:02.181Z,2.40
2017-11-17T23:32:28.751Z,2.40
2017-11-17T23:34:55.414Z,2.30
2017-11-17T23:37:21.986Z,2.20
2017-11-17T23:39:48.588Z,2.20
2017-11-17T23:42:15.596Z,2.20
2017-11-17T23:44:42.184Z,2.20
2017-11-17T23:47:08.723Z,2.20
2017-11-17T23:49:35.372Z,2.20
2017-11-17T23:52:01.999Z,2.20
2017-11-17T23:54:28.984Z,2.40
2017-11-17T23:56:55.683Z,2.40
2017-11-17T23:59:22.227Z,2.40
